This is the latest recevied weather packets stored in our database for station/object 7L2IWN-13. If no packets are shown the sender has not sent any weather packets the latest 10 day(s).
| Time | Temp. | Humidity | Pressure | Rain* | Wind** | Luminosity | Snow |
|---|---|---|---|---|---|---|---|
| 1777790781 | 23.33° C | 58% | 1004.4 hPa | 0 mm | - | - | - |
| 1777790062 | 23.33° C | 57% | 1004.3 hPa | 0 mm | - | - | - |
| 1777789340 | 22.78° C | 59% | 1004.3 hPa | 0 mm | - | - | - |
| 1777788621 | 22.78° C | 60% | 1004.5 hPa | 0 mm | - | - | - |
| 1777787900 | 23.89° C | 58% | 1004.7 hPa | 0 mm | - | - | - |
| 1777787180 | 23.89° C | 56% | 1004.6 hPa | 0 mm | - | - | - |
| 1777785741 | 23.33° C | 61% | 1005.3 hPa | 0 mm | - | - | - |
| 1777785021 | 24.44° C | 56% | 1005.3 hPa | 0 mm | - | - | - |
| 1777784300 | 23.33° C | 56% | 1006 hPa | 0 mm | - | - | - |
| 1777783580 | 22.78° C | 59% | 1006.4 hPa | 0 mm | - | - | - |
| 1777782861 | 22.78° C | 59% | 1006.5 hPa | 0 mm | - | - | - |
| 1777782140 | 22.78° C | 58% | 1006.9 hPa | 0 mm | - | - | - |
| 1777781421 | 22.78° C | 59% | 1006.9 hPa | 0 mm | - | - | - |
| 1777780701 | 22.22° C | 57% | 1007.4 hPa | 0 mm | - | - | - |
| 1777779980 | 22.22° C | 55% | 1007.7 hPa | 0 mm | - | - | - |
| 1777779261 | 21.67° C | 56% | 1008 hPa | 0 mm | - | - | - |
| 1777778542 | 21.11° C | 58% | 1008.3 hPa | 0 mm | - | - | - |
| 1777777821 | 21.11° C | 57% | 1008.7 hPa | 0 mm | - | - | - |
| 1777777100 | 22.22° C | 55% | 1008.8 hPa | 0 mm | - | - | - |
| 1777776380 | 20.56° C | 56% | 1009.2 hPa | 0 mm | - | - | - |
| 1777775661 | 19.44° C | 58% | 1009.5 hPa | 0 mm | - | - | - |
| 1777774941 | 19.44° C | 62% | 1009.6 hPa | 0 mm | - | - | - |
| 1777774223 | 19.44° C | 63% | 1010.3 hPa | 0 mm | - | - | - |
| 1777773502 | 18.89° C | 64% | 1010.3 hPa | 0 mm | - | - | - |
| 1777772780 | 19.44° C | 65% | 1010.6 hPa | 0 mm | - | - | - |
* Rain latest hour (hover to see other rain measurements)
** Current wind speed in m/s (hover to see current wind gust speed)